sensor_id;sensor_type;location;lat;lon;timestamp;P1;durP1;ratioP1;P2;durP2;ratioP2
5787;SDS011;2920;48.158;12.254;2024-02-15T00:00:09;7.78;;;4.13;;
5787;SDS011;2920;48.158;12.254;2024-02-15T00:02:35;5.13;;;3.72;;
5787;SDS011;2920;48.158;12.254;2024-02-15T00:05:00;6.25;;;4.22;;
5787;SDS011;2920;48.158;12.254;2024-02-15T00:07:26;7.30;;;4.70;;
5787;SDS011;2920;48.158;12.254;2024-02-15T00:09:51;5.93;;;3.53;;
5787;SDS011;2920;48.158;12.254;2024-02-15T00:12:18;6.68;;;4.75;;
5787;SDS011;2920;48.158;12.254;2024-02-15T00:14:44;5.57;;;3.17;;
5787;SDS011;2920;48.158;12.254;2024-02-15T00:17:09;6.97;;;4.40;;
5787;SDS011;2920;48.158;12.254;2024-02-15T00:19:35;6.55;;;3.85;;
5787;SDS011;2920;48.158;12.254;2024-02-15T00:22:01;6.15;;;4.03;;
5787;SDS011;2920;48.158;12.254;2024-02-15T00:24:26;7.35;;;4.25;;
5787;SDS011;2920;48.158;12.254;2024-02-15T00:26:52;5.68;;;3.70;;
5787;SDS011;2920;48.158;12.254;2024-02-15T00:29:18;6.95;;;4.07;;
5787;SDS011;2920;48.158;12.254;2024-02-15T00:31:43;6.22;;;4.22;;
5787;SDS011;2920;48.158;12.254;2024-02-15T00:34:09;6.43;;;4.13;;
5787;SDS011;2920;48.158;12.254;2024-02-15T00:36:34;6.60;;;4.40;;
5787;SDS011;2920;48.158;12.254;2024-02-15T00:39:00;9.68;;;4.28;;
5787;SDS011;2920;48.158;12.254;2024-02-15T00:41:25;7.25;;;4.50;;
5787;SDS011;2920;48.158;12.254;2024-02-15T00:43:50;14.30;;;4.97;;
5787;SDS011;2920;48.158;12.254;2024-02-15T00:46:16;6.72;;;4.18;;
5787;SDS011;2920;48.158;12.254;2024-02-15T00:48:41;11.80;;;6.88;;
5787;SDS011;2920;48.158;12.254;2024-02-15T00:51:07;7.30;;;3.80;;
5787;SDS011;2920;48.158;12.254;2024-02-15T00:53:32;7.20;;;4.10;;
5787;SDS011;2920;48.158;12.254;2024-02-15T00:55:58;8.15;;;4.25;;
5787;SDS011;2920;48.158;12.254;2024-02-15T00:58:23;6.88;;;3.75;;
5787;SDS011;2920;48.158;12.254;2024-02-15T01:00:49;7.32;;;4.10;;
5787;SDS011;2920;48.158;12.254;2024-02-15T01:03:15;5.68;;;3.72;;
5787;SDS011;2920;48.158;12.254;2024-02-15T01:05:40;7.70;;;4.22;;
5787;SDS011;2920;48.158;12.254;2024-02-15T01:08:06;8.25;;;4.38;;
5787;SDS011;2920;48.158;12.254;2024-02-15T01:10:31;7.43;;;4.15;;
5787;SDS011;2920;48.158;12.254;2024-02-15T01:12:56;5.40;;;3.95;;
5787;SDS011;2920;48.158;12.254;2024-02-15T01:15:22;7.07;;;3.97;;
5787;SDS011;2920;48.158;12.254;2024-02-15T01:17:47;6.20;;;3.85;;
5787;SDS011;2920;48.158;12.254;2024-02-15T01:20:13;5.35;;;3.83;;
5787;SDS011;2920;48.158;12.254;2024-02-15T01:22:38;6.60;;;3.85;;
5787;SDS011;2920;48.158;12.254;2024-02-15T01:25:03;5.07;;;3.75;;
5787;SDS011;2920;48.158;12.254;2024-02-15T01:27:29;6.32;;;3.85;;
5787;SDS011;2920;48.158;12.254;2024-02-15T01:29:55;5.72;;;3.70;;
5787;SDS011;2920;48.158;12.254;2024-02-15T01:32:20;4.82;;;3.33;;
5787;SDS011;2920;48.158;12.254;2024-02-15T01:34:46;5.50;;;3.50;;
5787;SDS011;2920;48.158;12.254;2024-02-15T01:37:11;8.85;;;3.58;;
5787;SDS011;2920;48.158;12.254;2024-02-15T01:39:36;5.45;;;3.75;;
5787;SDS011;2920;48.158;12.254;2024-02-15T01:42:02;5.25;;;3.53;;
5787;SDS011;2920;48.158;12.254;2024-02-15T01:44:28;5.00;;;3.35;;
5787;SDS011;2920;48.158;12.254;2024-02-15T01:46:53;5.53;;;3.72;;
5787;SDS011;2920;48.158;12.254;2024-02-15T01:49:20;6.35;;;4.28;;
5787;SDS011;2920;48.158;12.254;2024-02-15T01:51:47;6.50;;;3.10;;
5787;SDS011;2920;48.158;12.254;2024-02-15T01:54:14;5.88;;;3.38;;
5787;SDS011;2920;48.158;12.254;2024-02-15T01:56:42;4.72;;;3.08;;
5787;SDS011;2920;48.158;12.254;2024-02-15T01:59:08;5.20;;;3.45;;
5787;SDS011;2920;48.158;12.254;2024-02-15T02:01:33;4.35;;;3.10;;
5787;SDS011;2920;48.158;12.254;2024-02-15T02:03:59;5.68;;;3.40;;
5787;SDS011;2920;48.158;12.254;2024-02-15T02:06:25;3.97;;;3.00;;
5787;SDS011;2920;48.158;12.254;2024-02-15T02:08:50;5.63;;;2.92;;
5787;SDS011;2920;48.158;12.254;2024-02-15T02:11:15;4.25;;;3.10;;
5787;SDS011;2920;48.158;12.254;2024-02-15T02:13:41;6.13;;;4.43;;
5787;SDS011;2920;48.158;12.254;2024-02-15T02:16:23;5.35;;;3.47;;
5787;SDS011;2920;48.158;12.254;2024-02-15T02:18:52;3.97;;;2.70;;
5787;SDS011;2920;48.158;12.254;2024-02-15T02:21:18;4.00;;;2.50;;
5787;SDS011;2920;48.158;12.254;2024-02-15T02:23:43;3.05;;;2.63;;
5787;SDS011;2920;48.158;12.254;2024-02-15T02:26:12;5.67;;;3.10;;
5787;SDS011;2920;48.158;12.254;2024-02-15T02:28:37;5.10;;;3.15;;
5787;SDS011;2920;48.158;12.254;2024-02-15T02:31:02;4.05;;;2.42;;
5787;SDS011;2920;48.158;12.254;2024-02-15T02:33:28;5.10;;;2.95;;
5787;SDS011;2920;48.158;12.254;2024-02-15T02:35:53;5.88;;;2.63;;
5787;SDS011;2920;48.158;12.254;2024-02-15T02:38:19;5.93;;;3.03;;
5787;SDS011;2920;48.158;12.254;2024-02-15T02:40:45;6.28;;;3.45;;
5787;SDS011;2920;48.158;12.254;2024-02-15T02:43:10;5.75;;;2.97;;
5787;SDS011;2920;48.158;12.254;2024-02-15T02:45:35;4.35;;;2.80;;
5787;SDS011;2920;48.158;12.254;2024-02-15T02:48:01;7.40;;;3.05;;
5787;SDS011;2920;48.158;12.254;2024-02-15T02:50:26;7.07;;;2.83;;
5787;SDS011;2920;48.158;12.254;2024-02-15T02:52:51;4.82;;;2.65;;
5787;SDS011;2920;48.158;12.254;2024-02-15T02:55:17;5.68;;;2.50;;
5787;SDS011;2920;48.158;12.254;2024-02-15T02:57:42;4.40;;;2.70;;
5787;SDS011;2920;48.158;12.254;2024-02-15T03:00:09;4.53;;;2.42;;
5787;SDS011;2920;48.158;12.254;2024-02-15T03:05:06;4.82;;;2.70;;
5787;SDS011;2920;48.158;12.254;2024-02-15T03:07:33;3.15;;;2.25;;
5787;SDS011;2920;48.158;12.254;2024-02-15T03:09:59;7.82;;;2.75;;
5787;SDS011;2920;48.158;12.254;2024-02-15T03:12:25;4.93;;;2.65;;
5787;SDS011;2920;48.158;12.254;2024-02-15T03:14:51;4.65;;;3.20;;
5787;SDS011;2920;48.158;12.254;2024-02-15T03:17:17;4.57;;;2.50;;
5787;SDS011;2920;48.158;12.254;2024-02-15T03:19:42;4.78;;;2.72;;
5787;SDS011;2920;48.158;12.254;2024-02-15T03:22:07;4.25;;;2.63;;
5787;SDS011;2920;48.158;12.254;2024-02-15T03:24:33;4.05;;;3.00;;
5787;SDS011;2920;48.158;12.254;2024-02-15T03:26:58;3.88;;;2.83;;
5787;SDS011;2920;48.158;12.254;2024-02-15T03:29:23;5.20;;;2.88;;
5787;SDS011;2920;48.158;12.254;2024-02-15T03:31:50;5.38;;;2.90;;
5787;SDS011;2920;48.158;12.254;2024-02-15T03:34:17;5.80;;;2.75;;
5787;SDS011;2920;48.158;12.254;2024-02-15T03:36:46;4.55;;;3.10;;
5787;SDS011;2920;48.158;12.254;2024-02-15T03:39:12;3.60;;;2.35;;
5787;SDS011;2920;48.158;12.254;2024-02-15T03:41:38;5.60;;;3.17;;
5787;SDS011;2920;48.158;12.254;2024-02-15T03:44:04;5.95;;;2.88;;
5787;SDS011;2920;48.158;12.254;2024-02-15T03:46:29;7.25;;;3.13;;
5787;SDS011;2920;48.158;12.254;2024-02-15T03:48:54;4.07;;;2.53;;
5787;SDS011;2920;48.158;12.254;2024-02-15T03:51:22;5.60;;;2.80;;
5787;SDS011;2920;48.158;12.254;2024-02-15T03:53:49;4.88;;;2.45;;
5787;SDS011;2920;48.158;12.254;2024-02-15T03:56:15;3.88;;;2.75;;
5787;SDS011;2920;48.158;12.254;2024-02-15T03:58:41;2.35;;;2.05;;
5787;SDS011;2920;48.158;12.254;2024-02-15T04:01:06;5.53;;;2.90;;
5787;SDS011;2920;48.158;12.254;2024-02-15T04:03:34;3.03;;;2.30;;
5787;SDS011;2920;48.158;12.254;2024-02-15T04:06:00;2.92;;;2.42;;
5787;SDS011;2920;48.158;12.254;2024-02-15T04:08:25;4.28;;;2.67;;
5787;SDS011;2920;48.158;12.254;2024-02-15T04:10:51;6.30;;;2.60;;
5787;SDS011;2920;48.158;12.254;2024-02-15T04:13:16;4.05;;;2.45;;
5787;SDS011;2920;48.158;12.254;2024-02-15T04:15:42;3.72;;;2.33;;
5787;SDS011;2920;48.158;12.254;2024-02-15T04:18:08;4.22;;;2.25;;
5787;SDS011;2920;48.158;12.254;2024-02-15T04:20:36;3.97;;;2.42;;
5787;SDS011;2920;48.158;12.254;2024-02-15T04:23:01;4.10;;;2.67;;
5787;SDS011;2920;48.158;12.254;2024-02-15T04:25:26;4.50;;;2.70;;
5787;SDS011;2920;48.158;12.254;2024-02-15T04:27:53;3.83;;;2.50;;
5787;SDS011;2920;48.158;12.254;2024-02-15T04:30:18;4.72;;;2.80;;
5787;SDS011;2920;48.158;12.254;2024-02-15T04:32:45;3.80;;;2.60;;
5787;SDS011;2920;48.158;12.254;2024-02-15T04:35:10;5.82;;;2.80;;
5787;SDS011;2920;48.158;12.254;2024-02-15T04:37:36;6.28;;;2.92;;
5787;SDS011;2920;48.158;12.254;2024-02-15T04:40:02;4.03;;;2.50;;
5787;SDS011;2920;48.158;12.254;2024-02-15T04:42:46;4.25;;;2.65;;
5787;SDS011;2920;48.158;12.254;2024-02-15T04:45:12;8.35;;;2.30;;
5787;SDS011;2920;48.158;12.254;2024-02-15T04:47:39;5.15;;;2.75;;
5787;SDS011;2920;48.158;12.254;2024-02-15T04:50:08;5.03;;;2.70;;
5787;SDS011;2920;48.158;12.254;2024-02-15T04:52:34;7.30;;;2.80;;
5787;SDS011;2920;48.158;12.254;2024-02-15T04:54:59;4.80;;;2.92;;
5787;SDS011;2920;48.158;12.254;2024-02-15T04:57:25;3.55;;;2.47;;
5787;SDS011;2920;48.158;12.254;2024-02-15T04:59:53;3.58;;;2.53;;
5787;SDS011;2920;48.158;12.254;2024-02-15T05:02:23;3.38;;;2.30;;
5787;SDS011;2920;48.158;12.254;2024-02-15T05:04:49;4.88;;;3.20;;
5787;SDS011;2920;48.158;12.254;2024-02-15T05:07:20;4.43;;;2.85;;
5787;SDS011;2920;48.158;12.254;2024-02-15T05:09:47;4.32;;;2.75;;
5787;SDS011;2920;48.158;12.254;2024-02-15T05:12:20;4.25;;;2.83;;
5787;SDS011;2920;48.158;12.254;2024-02-15T05:14:46;7.18;;;2.38;;
5787;SDS011;2920;48.158;12.254;2024-02-15T05:17:13;5.82;;;3.00;;
5787;SDS011;2920;48.158;12.254;2024-02-15T05:19:38;4.55;;;3.00;;
5787;SDS011;2920;48.158;12.254;2024-02-15T05:22:04;4.25;;;2.70;;
5787;SDS011;2920;48.158;12.254;2024-02-15T05:24:31;5.22;;;2.97;;
5787;SDS011;2920;48.158;12.254;2024-02-15T05:26:56;4.18;;;2.78;;
5787;SDS011;2920;48.158;12.254;2024-02-15T05:29:23;4.10;;;3.13;;
5787;SDS011;2920;48.158;12.254;2024-02-15T05:31:48;9.00;;;3.08;;
5787;SDS011;2920;48.158;12.254;2024-02-15T05:34:16;5.68;;;2.95;;
5787;SDS011;2920;48.158;12.254;2024-02-15T05:36:41;5.57;;;3.45;;
5787;SDS011;2920;48.158;12.254;2024-02-15T05:39:07;3.90;;;3.05;;
5787;SDS011;2920;48.158;12.254;2024-02-15T05:41:33;4.78;;;3.10;;
5787;SDS011;2920;48.158;12.254;2024-02-15T05:43:59;5.20;;;3.08;;
5787;SDS011;2920;48.158;12.254;2024-02-15T05:46:24;3.50;;;2.58;;
5787;SDS011;2920;48.158;12.254;2024-02-15T05:48:50;4.10;;;3.05;;
5787;SDS011;2920;48.158;12.254;2024-02-15T05:51:16;8.02;;;2.63;;
5787;SDS011;2920;48.158;12.254;2024-02-15T05:53:41;5.38;;;2.70;;
5787;SDS011;2920;48.158;12.254;2024-02-15T05:56:08;4.80;;;2.90;;
5787;SDS011;2920;48.158;12.254;2024-02-15T05:58:38;3.95;;;2.65;;
5787;SDS011;2920;48.158;12.254;2024-02-15T06:01:04;3.72;;;2.63;;
5787;SDS011;2920;48.158;12.254;2024-02-15T06:03:32;5.75;;;3.55;;
5787;SDS011;2920;48.158;12.254;2024-02-15T06:06:01;5.60;;;2.85;;
5787;SDS011;2920;48.158;12.254;2024-02-15T06:08:27;6.65;;;3.50;;
5787;SDS011;2920;48.158;12.254;2024-02-15T06:10:54;5.93;;;3.13;;
5787;SDS011;2920;48.158;12.254;2024-02-15T06:13:20;5.80;;;2.97;;
5787;SDS011;2920;48.158;12.254;2024-02-15T06:15:45;5.95;;;3.20;;
5787;SDS011;2920;48.158;12.254;2024-02-15T06:18:14;5.57;;;3.05;;
5787;SDS011;2920;48.158;12.254;2024-02-15T06:20:41;4.53;;;2.88;;
5787;SDS011;2920;48.158;12.254;2024-02-15T06:23:07;4.45;;;3.03;;
5787;SDS011;2920;48.158;12.254;2024-02-15T06:25:34;4.75;;;3.10;;
5787;SDS011;2920;48.158;12.254;2024-02-15T06:28:00;4.10;;;2.60;;
5787;SDS011;2920;48.158;12.254;2024-02-15T06:30:27;5.80;;;2.90;;
5787;SDS011;2920;48.158;12.254;2024-02-15T06:33:12;5.30;;;2.78;;
5787;SDS011;2920;48.158;12.254;2024-02-15T06:35:56;7.28;;;3.25;;
5787;SDS011;2920;48.158;12.254;2024-02-15T06:38:40;5.25;;;3.00;;
5787;SDS011;2920;48.158;12.254;2024-02-15T06:41:24;4.68;;;2.75;;
5787;SDS011;2920;48.158;12.254;2024-02-15T06:43:50;6.93;;;3.08;;
5787;SDS011;2920;48.158;12.254;2024-02-15T06:46:15;3.85;;;2.80;;
5787;SDS011;2920;48.158;12.254;2024-02-15T06:48:43;3.95;;;2.95;;
5787;SDS011;2920;48.158;12.254;2024-02-15T06:51:12;6.57;;;3.33;;
5787;SDS011;2920;48.158;12.254;2024-02-15T06:53:40;4.45;;;3.08;;
5787;SDS011;2920;48.158;12.254;2024-02-15T06:56:08;4.82;;;3.55;;
5787;SDS011;2920;48.158;12.254;2024-02-15T06:58:34;4.60;;;3.00;;
5787;SDS011;2920;48.158;12.254;2024-02-15T07:00:59;4.28;;;2.85;;
5787;SDS011;2920;48.158;12.254;2024-02-15T07:03:24;5.68;;;3.25;;
5787;SDS011;2920;48.158;12.254;2024-02-15T07:05:50;3.90;;;2.83;;
5787;SDS011;2920;48.158;12.254;2024-02-15T07:08:15;6.45;;;3.47;;
5787;SDS011;2920;48.158;12.254;2024-02-15T07:10:41;4.15;;;3.08;;
5787;SDS011;2920;48.158;12.254;2024-02-15T07:13:06;4.13;;;2.90;;
5787;SDS011;2920;48.158;12.254;2024-02-15T07:15:32;6.95;;;3.45;;
5787;SDS011;2920;48.158;12.254;2024-02-15T07:18:02;5.35;;;3.53;;
5787;SDS011;2920;48.158;12.254;2024-02-15T07:20:31;8.95;;;3.67;;
5787;SDS011;2920;48.158;12.254;2024-02-15T07:22:56;7.90;;;3.85;;
5787;SDS011;2920;48.158;12.254;2024-02-15T07:25:23;7.82;;;4.10;;
5787;SDS011;2920;48.158;12.254;2024-02-15T07:27:48;5.63;;;3.85;;
5787;SDS011;2920;48.158;12.254;2024-02-15T07:30:14;7.03;;;3.50;;
5787;SDS011;2920;48.158;12.254;2024-02-15T07:32:39;7.00;;;4.00;;
5787;SDS011;2920;48.158;12.254;2024-02-15T07:35:05;10.65;;;5.03;;
5787;SDS011;2920;48.158;12.254;2024-02-15T07:37:33;6.82;;;4.00;;
5787;SDS011;2920;48.158;12.254;2024-02-15T07:39:59;10.18;;;4.40;;
5787;SDS011;2920;48.158;12.254;2024-02-15T07:42:24;6.38;;;4.13;;
5787;SDS011;2920;48.158;12.254;2024-02-15T07:44:50;7.20;;;3.97;;
5787;SDS011;2920;48.158;12.254;2024-02-15T07:47:18;8.82;;;3.78;;
5787;SDS011;2920;48.158;12.254;2024-02-15T07:49:46;5.65;;;3.72;;
5787;SDS011;2920;48.158;12.254;2024-02-15T07:52:11;6.20;;;3.42;;
5787;SDS011;2920;48.158;12.254;2024-02-15T07:54:38;6.55;;;3.97;;
5787;SDS011;2920;48.158;12.254;2024-02-15T07:57:04;8.15;;;3.63;;
5787;SDS011;2920;48.158;12.254;2024-02-15T07:59:30;5.85;;;3.60;;
5787;SDS011;2920;48.158;12.254;2024-02-15T08:01:55;9.70;;;4.45;;
5787;SDS011;2920;48.158;12.254;2024-02-15T08:04:20;5.70;;;3.60;;
5787;SDS011;2920;48.158;12.254;2024-02-15T08:06:46;5.60;;;3.35;;
5787;SDS011;2920;48.158;12.254;2024-02-15T08:09:14;5.38;;;3.88;;
5787;SDS011;2920;48.158;12.254;2024-02-15T08:11:42;5.75;;;2.97;;
5787;SDS011;2920;48.158;12.254;2024-02-15T08:14:08;7.03;;;3.22;;
5787;SDS011;2920;48.158;12.254;2024-02-15T08:16:36;8.32;;;3.25;;
5787;SDS011;2920;48.158;12.254;2024-02-15T08:19:02;5.78;;;3.28;;
5787;SDS011;2920;48.158;12.254;2024-02-15T08:21:31;5.28;;;2.63;;
5787;SDS011;2920;48.158;12.254;2024-02-15T08:24:01;4.53;;;3.33;;
5787;SDS011;2920;48.158;12.254;2024-02-15T08:26:33;5.45;;;2.90;;
5787;SDS011;2920;48.158;12.254;2024-02-15T08:29:01;4.30;;;2.63;;
5787;SDS011;2920;48.158;12.254;2024-02-15T08:31:28;6.32;;;2.55;;
5787;SDS011;2920;48.158;12.254;2024-02-15T08:33:53;4.55;;;2.80;;
5787;SDS011;2920;48.158;12.254;2024-02-15T08:36:18;3.67;;;2.40;;
5787;SDS011;2920;48.158;12.254;2024-02-15T08:38:45;3.58;;;2.22;;
5787;SDS011;2920;48.158;12.254;2024-02-15T08:41:12;4.65;;;2.80;;
5787;SDS011;2920;48.158;12.254;2024-02-15T08:43:37;4.95;;;3.00;;
5787;SDS011;2920;48.158;12.254;2024-02-15T08:46:05;5.85;;;2.88;;
5787;SDS011;2920;48.158;12.254;2024-02-15T08:48:31;5.85;;;2.35;;
5787;SDS011;2920;48.158;12.254;2024-02-15T08:50:57;3.10;;;2.30;;
5787;SDS011;2920;48.158;12.254;2024-02-15T08:53:22;3.38;;;2.35;;
5787;SDS011;2920;48.158;12.254;2024-02-15T08:55:49;7.38;;;2.90;;
5787;SDS011;2920;48.158;12.254;2024-02-15T08:58:14;4.55;;;2.40;;
5787;SDS011;2920;48.158;12.254;2024-02-15T09:00:40;3.75;;;2.53;;
5787;SDS011;2920;48.158;12.254;2024-02-15T09:03:10;7.47;;;3.00;;
5787;SDS011;2920;48.158;12.254;2024-02-15T09:05:36;4.47;;;2.30;;
5787;SDS011;2920;48.158;12.254;2024-02-15T09:08:01;4.75;;;2.80;;
5787;SDS011;2920;48.158;12.254;2024-02-15T09:10:29;4.60;;;2.42;;
5787;SDS011;2920;48.158;12.254;2024-02-15T09:12:55;3.10;;;2.50;;
5787;SDS011;2920;48.158;12.254;2024-02-15T09:15:21;3.60;;;2.67;;
5787;SDS011;2920;48.158;12.254;2024-02-15T09:17:47;4.70;;;2.70;;
5787;SDS011;2920;48.158;12.254;2024-02-15T09:20:13;5.43;;;2.72;;
5787;SDS011;2920;48.158;12.254;2024-02-15T09:22:51;5.03;;;2.95;;
5787;SDS011;2920;48.158;12.254;2024-02-15T09:25:17;6.30;;;2.40;;
5787;SDS011;2920;48.158;12.254;2024-02-15T09:27:43;6.05;;;2.63;;
5787;SDS011;2920;48.158;12.254;2024-02-15T09:30:09;5.90;;;2.20;;
5787;SDS011;2920;48.158;12.254;2024-02-15T09:32:38;3.63;;;2.70;;
5787;SDS011;2920;48.158;12.254;2024-02-15T09:35:04;3.75;;;2.47;;
5787;SDS011;2920;48.158;12.254;2024-02-15T09:37:34;4.40;;;2.17;;
5787;SDS011;2920;48.158;12.254;2024-02-15T09:40:10;4.03;;;2.35;;
5787;SDS011;2920;48.158;12.254;2024-02-15T09:42:37;3.83;;;2.85;;
5787;SDS011;2920;48.158;12.254;2024-02-15T09:45:04;3.85;;;2.60;;
5787;SDS011;2920;48.158;12.254;2024-02-15T09:47:34;5.15;;;2.58;;
5787;SDS011;2920;48.158;12.254;2024-02-15T09:50:01;3.08;;;2.45;;
5787;SDS011;2920;48.158;12.254;2024-02-15T09:52:28;3.92;;;2.50;;
5787;SDS011;2920;48.158;12.254;2024-02-15T09:54:56;5.88;;;2.90;;
5787;SDS011;2920;48.158;12.254;2024-02-15T09:57:22;7.57;;;2.90;;
5787;SDS011;2920;48.158;12.254;2024-02-15T09:59:48;3.63;;;2.58;;
5787;SDS011;2920;48.158;12.254;2024-02-15T10:02:13;5.25;;;3.20;;
5787;SDS011;2920;48.158;12.254;2024-02-15T10:04:39;9.70;;;2.58;;
5787;SDS011;2920;48.158;12.254;2024-02-15T10:07:05;8.95;;;2.50;;
5787;SDS011;2920;48.158;12.254;2024-02-15T10:09:33;5.82;;;2.80;;
5787;SDS011;2920;48.158;12.254;2024-02-15T10:12:00;3.65;;;2.10;;
5787;SDS011;2920;48.158;12.254;2024-02-15T10:14:27;5.03;;;3.22;;
5787;SDS011;2920;48.158;12.254;2024-02-15T10:16:54;3.85;;;2.63;;
5787;SDS011;2920;48.158;12.254;2024-02-15T10:19:22;5.47;;;2.72;;
5787;SDS011;2920;48.158;12.254;2024-02-15T10:21:53;4.55;;;2.50;;
5787;SDS011;2920;48.158;12.254;2024-02-15T10:24:20;3.83;;;2.05;;
5787;SDS011;2920;48.158;12.254;2024-02-15T10:26:48;5.43;;;2.40;;
5787;SDS011;2920;48.158;12.254;2024-02-15T10:29:13;3.13;;;2.33;;
5787;SDS011;2920;48.158;12.254;2024-02-15T10:31:51;4.85;;;2.80;;
5787;SDS011;2920;48.158;12.254;2024-02-15T10:34:17;4.85;;;2.42;;
5787;SDS011;2920;48.158;12.254;2024-02-15T10:36:44;6.07;;;2.38;;
5787;SDS011;2920;48.158;12.254;2024-02-15T10:39:16;4.18;;;2.20;;
5787;SDS011;2920;48.158;12.254;2024-02-15T10:41:47;4.18;;;2.38;;
5787;SDS011;2920;48.158;12.254;2024-02-15T10:44:17;3.67;;;2.05;;
5787;SDS011;2920;48.158;12.254;2024-02-15T10:46:50;4.32;;;2.45;;
5787;SDS011;2920;48.158;12.254;2024-02-15T10:49:20;3.65;;;2.10;;
5787;SDS011;2920;48.158;12.254;2024-02-15T10:51:50;3.90;;;1.90;;
5787;SDS011;2920;48.158;12.254;2024-02-15T10:54:31;3.80;;;1.90;;
5787;SDS011;2920;48.158;12.254;2024-02-15T10:57:03;2.30;;;1.60;;
5787;SDS011;2920;48.158;12.254;2024-02-15T10:59:31;3.42;;;2.05;;
5787;SDS011;2920;48.158;12.254;2024-02-15T11:01:59;2.38;;;1.85;;
5787;SDS011;2920;48.158;12.254;2024-02-15T11:04:25;4.70;;;2.10;;
5787;SDS011;2920;48.158;12.254;2024-02-15T11:06:57;2.40;;;1.58;;
5787;SDS011;2920;48.158;12.254;2024-02-15T11:09:23;2.42;;;1.38;;
5787;SDS011;2920;48.158;12.254;2024-02-15T11:11:50;4.10;;;1.63;;
5787;SDS011;2920;48.158;12.254;2024-02-15T11:14:23;2.65;;;1.35;;
5787;SDS011;2920;48.158;12.254;2024-02-15T11:16:55;2.50;;;1.55;;
5787;SDS011;2920;48.158;12.254;2024-02-15T11:22:07;1.70;;;1.17;;
5787;SDS011;2920;48.158;12.254;2024-02-15T11:24:34;2.33;;;1.35;;
5787;SDS011;2920;48.158;12.254;2024-02-15T11:27:05;4.07;;;1.90;;
5787;SDS011;2920;48.158;12.254;2024-02-15T11:32:39;2.47;;;1.55;;
5787;SDS011;2920;48.158;12.254;2024-02-15T11:35:12;2.53;;;1.50;;
5787;SDS011;2920;48.158;12.254;2024-02-15T11:40:21;1.92;;;1.40;;
5787;SDS011;2920;48.158;12.254;2024-02-15T11:42:48;4.05;;;1.40;;
5787;SDS011;2920;48.158;12.254;2024-02-15T11:45:18;2.13;;;1.30;;
5787;SDS011;2920;48.158;12.254;2024-02-15T11:47:43;2.05;;;1.20;;
5787;SDS011;2920;48.158;12.254;2024-02-15T11:50:14;1.65;;;1.30;;
5787;SDS011;2920;48.158;12.254;2024-02-15T11:52:43;2.17;;;1.50;;
5787;SDS011;2920;48.158;12.254;2024-02-15T11:55:09;4.43;;;1.95;;
5787;SDS011;2920;48.158;12.254;2024-02-15T11:57:40;1.38;;;1.00;;
5787;SDS011;2920;48.158;12.254;2024-02-15T12:00:25;3.25;;;1.10;;
5787;SDS011;2920;48.158;12.254;2024-02-15T12:03:09;1.52;;;1.30;;
5787;SDS011;2920;48.158;12.254;2024-02-15T12:05:54;1.52;;;1.38;;
5787;SDS011;2920;48.158;12.254;2024-02-15T12:08:38;1.15;;;1.00;;
5787;SDS011;2920;48.158;12.254;2024-02-15T12:11:22;1.20;;;1.02;;
5787;SDS011;2920;48.158;12.254;2024-02-15T12:14:06;2.67;;;1.30;;
5787;SDS011;2920;48.158;12.254;2024-02-15T12:20:03;6.03;;;1.60;;
5787;SDS011;2920;48.158;12.254;2024-02-15T12:22:40;5.03;;;1.75;;
5787;SDS011;2920;48.158;12.254;2024-02-15T12:25:13;4.60;;;1.77;;
5787;SDS011;2920;48.158;12.254;2024-02-15T12:27:43;4.32;;;1.50;;
5787;SDS011;2920;48.158;12.254;2024-02-15T12:30:15;2.95;;;1.35;;
5787;SDS011;2920;48.158;12.254;2024-02-15T12:32:45;2.33;;;1.45;;
5787;SDS011;2920;48.158;12.254;2024-02-15T12:35:13;2.75;;;1.63;;
5787;SDS011;2920;48.158;12.254;2024-02-15T12:38:01;2.20;;;1.55;;
5787;SDS011;2920;48.158;12.254;2024-02-15T12:40:34;3.30;;;1.15;;
5787;SDS011;2920;48.158;12.254;2024-02-15T12:43:01;2.75;;;1.27;;
5787;SDS011;2920;48.158;12.254;2024-02-15T12:45:30;4.03;;;1.50;;
5787;SDS011;2920;48.158;12.254;2024-02-15T12:47:56;3.17;;;1.42;;
5787;SDS011;2920;48.158;12.254;2024-02-15T12:50:22;2.60;;;1.65;;
5787;SDS011;2920;48.158;12.254;2024-02-15T12:52:49;2.33;;;1.38;;
5787;SDS011;2920;48.158;12.254;2024-02-15T12:57:47;1.50;;;1.40;;
5787;SDS011;2920;48.158;12.254;2024-02-15T13:00:17;2.83;;;1.40;;
5787;SDS011;2920;48.158;12.254;2024-02-15T13:02:44;2.30;;;1.50;;
5787;SDS011;2920;48.158;12.254;2024-02-15T13:05:10;2.60;;;1.50;;
5787;SDS011;2920;48.158;12.254;2024-02-15T13:07:36;2.95;;;1.50;;
5787;SDS011;2920;48.158;12.254;2024-02-15T13:10:02;4.30;;;1.27;;
5787;SDS011;2920;48.158;12.254;2024-02-15T13:12:31;1.83;;;1.20;;
5787;SDS011;2920;48.158;12.254;2024-02-15T13:14:59;1.80;;;1.27;;
5787;SDS011;2920;48.158;12.254;2024-02-15T13:17:25;1.92;;;1.02;;
5787;SDS011;2920;48.158;12.254;2024-02-15T13:19:52;1.30;;;0.98;;
5787;SDS011;2920;48.158;12.254;2024-02-15T13:22:17;1.23;;;0.95;;
5787;SDS011;2920;48.158;12.254;2024-02-15T13:24:43;2.75;;;1.10;;
5787;SDS011;2920;48.158;12.254;2024-02-15T13:27:09;2.58;;;1.17;;
5787;SDS011;2920;48.158;12.254;2024-02-15T13:29:40;1.42;;;1.10;;
5787;SDS011;2920;48.158;12.254;2024-02-15T13:32:06;2.28;;;1.15;;
5787;SDS011;2920;48.158;12.254;2024-02-15T13:34:32;1.65;;;1.25;;
5787;SDS011;2920;48.158;12.254;2024-02-15T13:37:01;3.97;;;1.42;;
5787;SDS011;2920;48.158;12.254;2024-02-15T13:39:29;2.15;;;1.23;;
5787;SDS011;2920;48.158;12.254;2024-02-15T13:41:58;2.22;;;1.30;;
5787;SDS011;2920;48.158;12.254;2024-02-15T13:44:24;3.50;;;1.13;;
5787;SDS011;2920;48.158;12.254;2024-02-15T13:46:50;1.20;;;0.88;;
5787;SDS011;2920;48.158;12.254;2024-02-15T13:49:15;1.38;;;1.00;;
5787;SDS011;2920;48.158;12.254;2024-02-15T13:51:42;2.55;;;1.20;;
5787;SDS011;2920;48.158;12.254;2024-02-15T13:54:07;2.20;;;0.90;;
5787;SDS011;2920;48.158;12.254;2024-02-15T13:56:33;2.75;;;1.40;;
5787;SDS011;2920;48.158;12.254;2024-02-15T13:58:58;2.63;;;1.10;;
5787;SDS011;2920;48.158;12.254;2024-02-15T14:01:24;2.45;;;1.23;;
5787;SDS011;2920;48.158;12.254;2024-02-15T14:03:50;1.30;;;1.10;;
5787;SDS011;2920;48.158;12.254;2024-02-15T14:06:17;1.65;;;1.00;;
5787;SDS011;2920;48.158;12.254;2024-02-15T14:08:43;2.47;;;1.40;;
5787;SDS011;2920;48.158;12.254;2024-02-15T14:11:09;1.67;;;1.08;;
5787;SDS011;2920;48.158;12.254;2024-02-15T14:13:34;1.23;;;1.10;;
5787;SDS011;2920;48.158;12.254;2024-02-15T14:16:00;4.32;;;1.20;;
5787;SDS011;2920;48.158;12.254;2024-02-15T14:18:27;3.05;;;1.27;;
5787;SDS011;2920;48.158;12.254;2024-02-15T14:20:53;1.80;;;1.23;;
5787;SDS011;2920;48.158;12.254;2024-02-15T14:23:18;2.20;;;0.93;;
5787;SDS011;2920;48.158;12.254;2024-02-15T14:25:44;1.10;;;1.00;;
5787;SDS011;2920;48.158;12.254;2024-02-15T14:28:09;2.35;;;1.20;;
5787;SDS011;2920;48.158;12.254;2024-02-15T14:30:35;3.35;;;1.50;;
5787;SDS011;2920;48.158;12.254;2024-02-15T14:33:19;1.75;;;1.25;;
5787;SDS011;2920;48.158;12.254;2024-02-15T14:35:47;2.55;;;1.42;;
5787;SDS011;2920;48.158;12.254;2024-02-15T14:38:13;2.55;;;1.40;;
5787;SDS011;2920;48.158;12.254;2024-02-15T14:43:07;2.70;;;1.30;;
5787;SDS011;2920;48.158;12.254;2024-02-15T14:45:34;1.35;;;1.25;;
5787;SDS011;2920;48.158;12.254;2024-02-15T14:48:01;1.63;;;1.05;;
5787;SDS011;2920;48.158;12.254;2024-02-15T14:50:28;3.67;;;1.23;;
5787;SDS011;2920;48.158;12.254;2024-02-15T14:52:53;4.60;;;1.48;;
5787;SDS011;2920;48.158;12.254;2024-02-15T14:55:19;3.35;;;1.80;;
5787;SDS011;2920;48.158;12.254;2024-02-15T14:57:45;1.98;;;1.20;;
5787;SDS011;2920;48.158;12.254;2024-02-15T15:00:10;3.03;;;1.50;;
5787;SDS011;2920;48.158;12.254;2024-02-15T15:02:39;2.25;;;1.23;;
5787;SDS011;2920;48.158;12.254;2024-02-15T15:05:14;3.10;;;1.58;;
5787;SDS011;2920;48.158;12.254;2024-02-15T15:07:58;1.45;;;0.82;;
5787;SDS011;2920;48.158;12.254;2024-02-15T15:10:44;3.10;;;1.20;;
5787;SDS011;2920;48.158;12.254;2024-02-15T15:13:29;2.10;;;1.02;;
5787;SDS011;2920;48.158;12.254;2024-02-15T15:15:54;2.45;;;0.85;;
5787;SDS011;2920;48.158;12.254;2024-02-15T15:18:20;9.65;;;1.20;;
5787;SDS011;2920;48.158;12.254;2024-02-15T15:20:46;2.40;;;1.63;;